sensor_id;sensor_type;location;lat;lon;timestamp;pressure;altitude;pressure_sealevel;temperature;humidity
29825;BME280;16713;52.916;12.834;2023-04-25T00:01:35;99897.00;;;10.47;64.31
29825;BME280;16713;52.916;12.834;2023-04-25T00:04:02;99902.06;;;10.45;63.58
29825;BME280;16713;52.916;12.834;2023-04-25T00:06:29;99902.28;;;10.36;63.64
29825;BME280;16713;52.916;12.834;2023-04-25T00:08:55;99896.81;;;10.36;64.00
29825;BME280;16713;52.916;12.834;2023-04-25T00:11:23;99896.13;;;10.13;64.47
29825;BME280;16713;52.916;12.834;2023-04-25T00:13:50;99897.88;;;10.25;63.63
29825;BME280;16713;52.916;12.834;2023-04-25T00:16:20;99898.72;;;10.32;63.64
29825;BME280;16713;52.916;12.834;2023-04-25T00:18:47;99896.97;;;10.17;64.49
29825;BME280;16713;52.916;12.834;2023-04-25T00:21:18;99901.31;;;10.18;63.91
29825;BME280;16713;52.916;12.834;2023-04-25T00:23:46;99897.56;;;10.04;65.21
29825;BME280;16713;52.916;12.834;2023-04-25T00:26:13;99896.50;;;10.12;64.33
29825;BME280;16713;52.916;12.834;2023-04-25T00:28:40;99901.69;;;10.20;64.75
29825;BME280;16713;52.916;12.834;2023-04-25T00:31:06;99897.00;;;10.21;64.33
29825;BME280;16713;52.916;12.834;2023-04-25T00:33:33;99895.88;;;10.25;63.74
29825;BME280;16713;52.916;12.834;2023-04-25T00:36:00;99899.19;;;10.08;64.75
29825;BME280;16713;52.916;12.834;2023-04-25T00:38:26;99892.25;;;9.88;64.06
29825;BME280;16713;52.916;12.834;2023-04-25T00:40:53;99895.97;;;10.03;64.27
29825;BME280;16713;52.916;12.834;2023-04-25T00:43:21;99899.84;;;9.98;63.58
29825;BME280;16713;52.916;12.834;2023-04-25T00:45:48;99901.56;;;10.10;64.39
29825;BME280;16713;52.916;12.834;2023-04-25T00:48:17;99900.06;;;10.16;64.57
29825;BME280;16713;52.916;12.834;2023-04-25T00:50:51;99895.41;;;10.16;64.80
29825;BME280;16713;52.916;12.834;2023-04-25T00:53:18;99893.78;;;10.15;63.74
29825;BME280;16713;52.916;12.834;2023-04-25T00:55:45;99901.94;;;10.08;64.25
29825;BME280;16713;52.916;12.834;2023-04-25T00:58:11;99888.31;;;10.15;63.76
29825;BME280;16713;52.916;12.834;2023-04-25T01:00:38;99891.97;;;9.97;64.54
29825;BME280;16713;52.916;12.834;2023-04-25T01:03:06;99892.88;;;10.04;64.23
29825;BME280;16713;52.916;12.834;2023-04-25T01:05:33;99886.63;;;10.04;64.64
29825;BME280;16713;52.916;12.834;2023-04-25T01:07:59;99890.88;;;10.01;65.23
29825;BME280;16713;52.916;12.834;2023-04-25T01:10:26;99885.72;;;9.96;65.19
29825;BME280;16713;52.916;12.834;2023-04-25T01:12:52;99883.94;;;9.81;65.48
29825;BME280;16713;52.916;12.834;2023-04-25T01:15:19;99884.13;;;9.95;64.44
29825;BME280;16713;52.916;12.834;2023-04-25T01:17:46;99879.25;;;9.82;64.30
29825;BME280;16713;52.916;12.834;2023-04-25T01:20:13;99886.13;;;9.98;65.58
29825;BME280;16713;52.916;12.834;2023-04-25T01:22:40;99878.16;;;9.86;65.87
29825;BME280;16713;52.916;12.834;2023-04-25T01:25:07;99883.25;;;9.88;66.29
29825;BME280;16713;52.916;12.834;2023-04-25T01:27:33;99887.13;;;9.87;66.18
29825;BME280;16713;52.916;12.834;2023-04-25T01:30:02;99888.38;;;9.89;65.29
29825;BME280;16713;52.916;12.834;2023-04-25T01:32:30;99882.66;;;9.75;65.25
29825;BME280;16713;52.916;12.834;2023-04-25T01:35:06;99892.53;;;9.80;65.83
29825;BME280;16713;52.916;12.834;2023-04-25T01:37:39;99886.00;;;9.88;66.41
29825;BME280;16713;52.916;12.834;2023-04-25T01:40:07;99891.00;;;9.82;65.29
29825;BME280;16713;52.916;12.834;2023-04-25T01:42:36;99892.78;;;9.97;64.33
29825;BME280;16713;52.916;12.834;2023-04-25T01:45:03;99888.06;;;9.94;65.73
29825;BME280;16713;52.916;12.834;2023-04-25T01:47:30;99888.41;;;9.93;65.23
29825;BME280;16713;52.916;12.834;2023-04-25T01:49:58;99892.84;;;10.01;64.22
29825;BME280;16713;52.916;12.834;2023-04-25T01:52:24;99895.59;;;10.04;64.45
29825;BME280;16713;52.916;12.834;2023-04-25T01:54:51;99895.03;;;9.92;65.87
29825;BME280;16713;52.916;12.834;2023-04-25T01:57:18;99897.84;;;9.95;66.26
29825;BME280;16713;52.916;12.834;2023-04-25T01:59:46;99894.09;;;9.81;66.33
29825;BME280;16713;52.916;12.834;2023-04-25T02:02:12;99891.78;;;9.83;67.29
29825;BME280;16713;52.916;12.834;2023-04-25T02:04:39;99899.31;;;9.89;67.44
29825;BME280;16713;52.916;12.834;2023-04-25T02:07:05;99899.78;;;9.95;68.04
29825;BME280;16713;52.916;12.834;2023-04-25T02:09:32;99904.16;;;9.73;67.64
29825;BME280;16713;52.916;12.834;2023-04-25T02:11:58;99899.94;;;9.79;67.24
29825;BME280;16713;52.916;12.834;2023-04-25T02:14:25;99898.78;;;9.80;67.53
29825;BME280;16713;52.916;12.834;2023-04-25T02:16:52;99903.50;;;9.83;67.23
29825;BME280;16713;52.916;12.834;2023-04-25T02:19:18;99904.38;;;9.87;66.33
29825;BME280;16713;52.916;12.834;2023-04-25T02:21:45;99900.47;;;9.88;67.28
29825;BME280;16713;52.916;12.834;2023-04-25T02:24:11;99902.00;;;9.86;66.73
29825;BME280;16713;52.916;12.834;2023-04-25T02:26:38;99895.72;;;9.85;66.39
29825;BME280;16713;52.916;12.834;2023-04-25T02:29:04;99900.13;;;9.67;67.24
29825;BME280;16713;52.916;12.834;2023-04-25T02:31:31;99900.06;;;9.86;66.88
29825;BME280;16713;52.916;12.834;2023-04-25T02:33:58;99893.34;;;9.84;67.73
29825;BME280;16713;52.916;12.834;2023-04-25T02:36:24;99898.38;;;9.78;66.01
29825;BME280;16713;52.916;12.834;2023-04-25T02:38:52;99889.78;;;9.54;67.06
29825;BME280;16713;52.916;12.834;2023-04-25T02:41:18;99898.38;;;9.78;66.12
29825;BME280;16713;52.916;12.834;2023-04-25T02:43:47;99897.25;;;9.83;66.35
29825;BME280;16713;52.916;12.834;2023-04-25T02:46:14;99896.91;;;9.84;66.59
29825;BME280;16713;52.916;12.834;2023-04-25T02:48:44;99897.53;;;9.74;66.56
29825;BME280;16713;52.916;12.834;2023-04-25T02:51:10;99892.34;;;9.69;67.82
29825;BME280;16713;52.916;12.834;2023-04-25T02:53:37;99897.22;;;9.79;67.43
29825;BME280;16713;52.916;12.834;2023-04-25T02:56:04;99894.41;;;9.76;67.56
29825;BME280;16713;52.916;12.834;2023-04-25T02:58:30;99894.91;;;9.81;67.62
29825;BME280;16713;52.916;12.834;2023-04-25T03:00:57;99898.69;;;9.73;67.68
29825;BME280;16713;52.916;12.834;2023-04-25T03:03:23;99896.78;;;9.77;66.66
29825;BME280;16713;52.916;12.834;2023-04-25T03:05:51;99891.63;;;9.72;67.65
29825;BME280;16713;52.916;12.834;2023-04-25T03:08:18;99892.47;;;9.76;67.35
29825;BME280;16713;52.916;12.834;2023-04-25T03:10:45;99895.47;;;9.68;66.28
29825;BME280;16713;52.916;12.834;2023-04-25T03:13:11;99889.38;;;9.78;67.55
29825;BME280;16713;52.916;12.834;2023-04-25T03:15:38;99895.59;;;9.75;66.15
29825;BME280;16713;52.916;12.834;2023-04-25T03:18:05;99895.22;;;9.76;66.64
29825;BME280;16713;52.916;12.834;2023-04-25T03:20:32;99891.53;;;9.65;66.46
29825;BME280;16713;52.916;12.834;2023-04-25T03:22:58;99895.91;;;9.70;67.60
29825;BME280;16713;52.916;12.834;2023-04-25T03:25:25;99893.16;;;9.70;66.06
29825;BME280;16713;52.916;12.834;2023-04-25T03:27:51;99891.03;;;9.60;68.02
29825;BME280;16713;52.916;12.834;2023-04-25T03:30:18;99896.88;;;9.58;67.29
29825;BME280;16713;52.916;12.834;2023-04-25T03:32:44;99900.13;;;9.67;66.67
29825;BME280;16713;52.916;12.834;2023-04-25T03:35:11;99904.34;;;9.61;67.38
29825;BME280;16713;52.916;12.834;2023-04-25T03:37:37;99908.69;;;9.62;66.10
29825;BME280;16713;52.916;12.834;2023-04-25T03:40:04;99913.81;;;9.64;67.83
29825;BME280;16713;52.916;12.834;2023-04-25T03:42:31;99912.88;;;9.56;66.75
29825;BME280;16713;52.916;12.834;2023-04-25T03:44:57;99913.75;;;9.60;67.98
29825;BME280;16713;52.916;12.834;2023-04-25T03:47:24;99901.34;;;9.44;67.05
29825;BME280;16713;52.916;12.834;2023-04-25T03:49:50;99903.47;;;9.31;66.83
29825;BME280;16713;52.916;12.834;2023-04-25T03:52:18;99912.22;;;9.40;68.26
29825;BME280;16713;52.916;12.834;2023-04-25T03:54:44;99910.44;;;9.51;68.73
29825;BME280;16713;52.916;12.834;2023-04-25T03:57:11;99909.78;;;9.58;67.76
29825;BME280;16713;52.916;12.834;2023-04-25T03:59:37;99913.75;;;9.60;67.45
29825;BME280;16713;52.916;12.834;2023-04-25T04:02:03;99907.47;;;9.60;66.86
29825;BME280;16713;52.916;12.834;2023-04-25T04:04:30;99910.19;;;9.60;67.03
29825;BME280;16713;52.916;12.834;2023-04-25T04:06:57;99914.16;;;9.62;67.98
29825;BME280;16713;52.916;12.834;2023-04-25T04:09:23;99912.56;;;9.61;67.42
29825;BME280;16713;52.916;12.834;2023-04-25T04:11:50;99906.63;;;9.56;66.21
29825;BME280;16713;52.916;12.834;2023-04-25T04:14:16;99906.59;;;9.78;66.22
29825;BME280;16713;52.916;12.834;2023-04-25T04:16:43;99910.25;;;9.63;65.85
29825;BME280;16713;52.916;12.834;2023-04-25T04:19:09;99920.31;;;9.82;66.69
29825;BME280;16713;52.916;12.834;2023-04-25T04:21:36;99920.53;;;9.70;65.67
29825;BME280;16713;52.916;12.834;2023-04-25T04:24:02;99923.59;;;9.65;65.93
29825;BME280;16713;52.916;12.834;2023-04-25T04:26:29;99926.88;;;9.51;66.77
29825;BME280;16713;52.916;12.834;2023-04-25T04:28:58;99926.38;;;9.68;67.38
29825;BME280;16713;52.916;12.834;2023-04-25T04:31:25;99927.66;;;9.74;66.17
29825;BME280;16713;52.916;12.834;2023-04-25T04:33:51;99933.44;;;9.69;66.16
29825;BME280;16713;52.916;12.834;2023-04-25T04:36:19;99928.94;;;9.58;67.23
29825;BME280;16713;52.916;12.834;2023-04-25T04:38:49;99929.84;;;9.65;66.38
29825;BME280;16713;52.916;12.834;2023-04-25T04:41:15;99933.84;;;9.71;66.51
29825;BME280;16713;52.916;12.834;2023-04-25T04:43:42;99927.91;;;9.43;68.20
29825;BME280;16713;52.916;12.834;2023-04-25T04:46:09;99937.16;;;9.58;67.29
29825;BME280;16713;52.916;12.834;2023-04-25T04:48:36;99945.19;;;9.70;68.38
29825;BME280;16713;52.916;12.834;2023-04-25T04:51:03;99940.88;;;9.69;67.68
29825;BME280;16713;52.916;12.834;2023-04-25T04:53:29;99941.97;;;9.42;67.21
29825;BME280;16713;52.916;12.834;2023-04-25T04:55:56;99938.53;;;9.45;67.59
29825;BME280;16713;52.916;12.834;2023-04-25T04:58:22;99943.13;;;9.41;68.57
29825;BME280;16713;52.916;12.834;2023-04-25T05:00:49;99947.38;;;9.19;70.06
29825;BME280;16713;52.916;12.834;2023-04-25T05:03:16;99947.19;;;9.28;69.29
29825;BME280;16713;52.916;12.834;2023-04-25T05:05:42;99950.13;;;9.38;68.82
29825;BME280;16713;52.916;12.834;2023-04-25T05:08:09;99954.22;;;9.48;70.04
29825;BME280;16713;52.916;12.834;2023-04-25T05:10:36;99954.97;;;9.48;70.05
29825;BME280;16713;52.916;12.834;2023-04-25T05:13:02;99953.72;;;9.42;69.46
29825;BME280;16713;52.916;12.834;2023-04-25T05:15:29;99954.38;;;9.36;70.59
29825;BME280;16713;52.916;12.834;2023-04-25T05:17:55;99960.44;;;9.26;69.95
29825;BME280;16713;52.916;12.834;2023-04-25T05:20:22;99959.38;;;9.30;70.16
29825;BME280;16713;52.916;12.834;2023-04-25T05:22:49;99960.16;;;9.31;70.50
29825;BME280;16713;52.916;12.834;2023-04-25T05:25:15;99961.09;;;9.38;69.31
29825;BME280;16713;52.916;12.834;2023-04-25T05:27:42;99959.03;;;9.35;70.49
29825;BME280;16713;52.916;12.834;2023-04-25T05:30:08;99955.22;;;8.98;70.66
29825;BME280;16713;52.916;12.834;2023-04-25T05:32:35;99962.09;;;9.11;71.50
29825;BME280;16713;52.916;12.834;2023-04-25T05:35:03;99964.84;;;9.11;71.62
29825;BME280;16713;52.916;12.834;2023-04-25T05:37:29;99965.22;;;9.29;70.76
29825;BME280;16713;52.916;12.834;2023-04-25T05:39:57;99973.47;;;9.13;72.28
29825;BME280;16713;52.916;12.834;2023-04-25T05:42:23;99970.31;;;9.11;71.42
29825;BME280;16713;52.916;12.834;2023-04-25T05:44:50;99974.00;;;8.99;71.89
29825;BME280;16713;52.916;12.834;2023-04-25T05:47:16;99980.69;;;9.02;71.25
29825;BME280;16713;52.916;12.834;2023-04-25T05:49:43;99981.72;;;8.94;72.35
29825;BME280;16713;52.916;12.834;2023-04-25T05:52:09;99987.09;;;8.71;72.81
29825;BME280;16713;52.916;12.834;2023-04-25T05:54:36;99983.16;;;8.88;72.84
29825;BME280;16713;52.916;12.834;2023-04-25T05:57:02;99982.28;;;8.84;72.07
29825;BME280;16713;52.916;12.834;2023-04-25T05:59:28;99983.97;;;8.88;70.84
29825;BME280;16713;52.916;12.834;2023-04-25T06:01:55;99991.63;;;9.02;70.62
29825;BME280;16713;52.916;12.834;2023-04-25T06:04:21;99991.63;;;9.02;70.83
29825;BME280;16713;52.916;12.834;2023-04-25T06:06:48;99994.50;;;9.09;70.38
29825;BME280;16713;52.916;12.834;2023-04-25T06:09:15;100000.50;;;8.95;70.25
29825;BME280;16713;52.916;12.834;2023-04-25T06:11:41;100003.28;;;9.18;71.55
29825;BME280;16713;52.916;12.834;2023-04-25T06:14:08;100003.09;;;9.07;71.32
29825;BME280;16713;52.916;12.834;2023-04-25T06:16:34;100004.66;;;9.08;69.72
29825;BME280;16713;52.916;12.834;2023-04-25T06:19:01;100000.19;;;9.19;69.73
29825;BME280;16713;52.916;12.834;2023-04-25T06:21:27;100011.78;;;9.32;68.58
29825;BME280;16713;52.916;12.834;2023-04-25T06:23:54;100008.31;;;9.35;68.73
29825;BME280;16713;52.916;12.834;2023-04-25T06:26:20;100022.00;;;9.58;68.14
29825;BME280;16713;52.916;12.834;2023-04-25T06:28:47;100012.59;;;9.55;69.19
29825;BME280;16713;52.916;12.834;2023-04-25T06:31:13;100022.94;;;9.43;67.84
29825;BME280;16713;52.916;12.834;2023-04-25T06:33:40;100025.41;;;9.51;67.55
29825;BME280;16713;52.916;12.834;2023-04-25T06:36:06;100032.31;;;9.64;65.90
29825;BME280;16713;52.916;12.834;2023-04-25T06:38:33;100039.00;;;9.67;66.37
29825;BME280;16713;52.916;12.834;2023-04-25T06:41:01;100031.75;;;9.78;64.58
29825;BME280;16713;52.916;12.834;2023-04-25T06:43:27;100030.72;;;9.41;64.49
29825;BME280;16713;52.916;12.834;2023-04-25T06:45:53;100049.91;;;9.63;65.93
29825;BME280;16713;52.916;12.834;2023-04-25T06:48:20;100051.91;;;9.66;64.86
29825;BME280;16713;52.916;12.834;2023-04-25T06:50:46;100036.84;;;9.15;66.56
29825;BME280;16713;52.916;12.834;2023-04-25T06:53:13;100041.53;;;9.56;65.15
29825;BME280;16713;52.916;12.834;2023-04-25T06:55:39;100041.47;;;9.30;65.28
29825;BME280;16713;52.916;12.834;2023-04-25T06:58:06;100048.69;;;9.42;64.55
29825;BME280;16713;52.916;12.834;2023-04-25T07:00:33;100048.88;;;9.30;64.11
29825;BME280;16713;52.916;12.834;2023-04-25T07:03:00;100053.72;;;9.59;64.13
29825;BME280;16713;52.916;12.834;2023-04-25T07:05:27;100056.50;;;9.40;65.10
29825;BME280;16713;52.916;12.834;2023-04-25T07:07:53;100061.63;;;9.22;65.48
29825;BME280;16713;52.916;12.834;2023-04-25T07:10:20;100057.22;;;9.37;64.36
29825;BME280;16713;52.916;12.834;2023-04-25T07:12:47;100063.75;;;9.32;64.53
29825;BME280;16713;52.916;12.834;2023-04-25T07:15:13;100067.22;;;9.29;63.58
29825;BME280;16713;52.916;12.834;2023-04-25T07:17:40;100065.03;;;9.19;64.13
29825;BME280;16713;52.916;12.834;2023-04-25T07:20:07;100068.41;;;9.28;62.11
29825;BME280;16713;52.916;12.834;2023-04-25T07:22:35;100077.69;;;9.24;62.37
29825;BME280;16713;52.916;12.834;2023-04-25T07:25:02;100065.03;;;9.00;61.02
29825;BME280;16713;52.916;12.834;2023-04-25T07:27:28;100071.63;;;9.34;62.27
29825;BME280;16713;52.916;12.834;2023-04-25T07:29:56;100069.75;;;8.99;60.75
29825;BME280;16713;52.916;12.834;2023-04-25T07:32:22;100071.56;;;9.30;61.49
29825;BME280;16713;52.916;12.834;2023-04-25T07:34:50;100079.31;;;9.09;60.76
29825;BME280;16713;52.916;12.834;2023-04-25T07:37:17;100075.63;;;9.01;61.37
29825;BME280;16713;52.916;12.834;2023-04-25T07:39:45;100081.19;;;9.24;60.43
29825;BME280;16713;52.916;12.834;2023-04-25T07:42:14;100076.31;;;9.33;59.79
29825;BME280;16713;52.916;12.834;2023-04-25T07:44:41;100085.09;;;9.42;61.22
29825;BME280;16713;52.916;12.834;2023-04-25T07:47:09;100095.75;;;9.47;60.69
29825;BME280;16713;52.916;12.834;2023-04-25T07:49:36;100096.72;;;9.58;59.45
29825;BME280;16713;52.916;12.834;2023-04-25T07:52:04;100088.25;;;9.44;59.56
29825;BME280;16713;52.916;12.834;2023-04-25T07:54:32;100101.69;;;9.72;59.30
29825;BME280;16713;52.916;12.834;2023-04-25T07:56:58;100103.56;;;9.68;58.58
29825;BME280;16713;52.916;12.834;2023-04-25T07:59:25;100101.50;;;9.42;57.40
29825;BME280;16713;52.916;12.834;2023-04-25T08:01:55;100113.41;;;9.72;57.41
29825;BME280;16713;52.916;12.834;2023-04-25T08:04:23;100105.94;;;9.69;55.81
29825;BME280;16713;52.916;12.834;2023-04-25T08:06:50;100119.06;;;10.02;54.35
29825;BME280;16713;52.916;12.834;2023-04-25T08:09:16;100109.25;;;10.01;53.77
29825;BME280;16713;52.916;12.834;2023-04-25T08:11:43;100129.94;;;9.98;53.75
29825;BME280;16713;52.916;12.834;2023-04-25T08:14:11;100129.34;;;10.08;52.86
29825;BME280;16713;52.916;12.834;2023-04-25T08:16:37;100137.72;;;9.96;51.59
29825;BME280;16713;52.916;12.834;2023-04-25T08:19:04;100147.34;;;10.09;50.57
29825;BME280;16713;52.916;12.834;2023-04-25T08:21:31;100149.25;;;10.28;51.21
29825;BME280;16713;52.916;12.834;2023-04-25T08:23:57;100147.78;;;10.11;51.36
29825;BME280;16713;52.916;12.834;2023-04-25T08:26:25;100152.47;;;10.33;51.01
29825;BME280;16713;52.916;12.834;2023-04-25T08:28:51;100167.59;;;10.46;52.01
29825;BME280;16713;52.916;12.834;2023-04-25T08:31:18;100165.50;;;10.63;52.41
29825;BME280;16713;52.916;12.834;2023-04-25T08:33:45;100171.97;;;10.74;51.72
29825;BME280;16713;52.916;12.834;2023-04-25T08:36:11;100180.75;;;10.86;49.35
29825;BME280;16713;52.916;12.834;2023-04-25T08:38:39;100186.13;;;11.02;48.89
29825;BME280;16713;52.916;12.834;2023-04-25T08:41:06;100184.94;;;11.03;48.66
29825;BME280;16713;52.916;12.834;2023-04-25T08:43:34;100187.56;;;11.22;49.47
29825;BME280;16713;52.916;12.834;2023-04-25T08:46:01;100198.22;;;11.27;48.55
29825;BME280;16713;52.916;12.834;2023-04-25T08:48:28;100192.03;;;11.33;47.66
29825;BME280;16713;52.916;12.834;2023-04-25T08:50:56;100210.25;;;11.45;47.66
29825;BME280;16713;52.916;12.834;2023-04-25T08:53:30;100205.91;;;11.44;47.13
29825;BME280;16713;52.916;12.834;2023-04-25T08:55:58;100208.19;;;11.68;47.23
29825;BME280;16713;52.916;12.834;2023-04-25T08:58:26;100212.44;;;11.62;47.03
29825;BME280;16713;52.916;12.834;2023-04-25T09:00:53;100222.66;;;11.61;47.01
29825;BME280;16713;52.916;12.834;2023-04-25T09:03:20;100210.88;;;11.35;46.66
29825;BME280;16713;52.916;12.834;2023-04-25T09:05:47;100219.97;;;11.39;46.38
29825;BME280;16713;52.916;12.834;2023-04-25T09:08:13;100223.97;;;11.45;46.23
29825;BME280;16713;52.916;12.834;2023-04-25T09:10:40;100220.63;;;11.29;46.39
29825;BME280;16713;52.916;12.834;2023-04-25T09:13:11;100213.50;;;10.98;47.04
29825;BME280;16713;52.916;12.834;2023-04-25T09:18:25;100235.53;;;11.31;46.67
29825;BME280;16713;52.916;12.834;2023-04-25T09:20:58;100248.75;;;11.48;46.39
29825;BME280;16713;52.916;12.834;2023-04-25T09:23:41;100233.91;;;11.01;45.66
29825;BME280;16713;52.916;12.834;2023-04-25T09:26:08;100256.81;;;11.38;46.38
29825;BME280;16713;52.916;12.834;2023-04-25T09:28:35;100246.56;;;10.83;46.37
29825;BME280;16713;52.916;12.834;2023-04-25T09:31:04;100218.00;;;10.19;47.22
29825;BME280;16713;52.916;12.834;2023-04-25T09:33:32;100250.28;;;10.71;46.23
29825;BME280;16713;52.916;12.834;2023-04-25T09:38:31;100258.06;;;10.92;46.65
29825;BME280;16713;52.916;12.834;2023-04-25T09:40:57;100276.38;;;11.07;47.14
29825;BME280;16713;52.916;12.834;2023-04-25T09:43:25;100267.47;;;11.17;47.18
29825;BME280;16713;52.916;12.834;2023-04-25T09:45:53;100233.53;;;10.12;46.40
29825;BME280;16713;52.916;12.834;2023-04-25T09:48:25;100279.38;;;10.76;45.61
29825;BME280;16713;52.916;12.834;2023-04-25T09:51:09;100275.03;;;10.75;46.01
29825;BME280;16713;52.916;12.834;2023-04-25T09:53:41;100282.91;;;10.76;46.09
29825;BME280;16713;52.916;12.834;2023-04-25T09:56:10;100292.78;;;10.81;45.98
29825;BME280;16713;52.916;12.834;2023-04-25T09:58:38;100294.66;;;10.77;45.96
29825;BME280;16713;52.916;12.834;2023-04-25T10:01:06;100306.19;;;10.86;45.40
29825;BME280;16713;52.916;12.834;2023-04-25T10:03:39;100305.91;;;10.72;44.97
29825;BME280;16713;52.916;12.834;2023-04-25T10:06:12;100296.13;;;10.71;44.94
29825;BME280;16713;52.916;12.834;2023-04-25T10:08:41;100314.53;;;10.70;45.46
29825;BME280;16713;52.916;12.834;2023-04-25T10:11:08;100318.56;;;10.76;45.87
29825;BME280;16713;52.916;12.834;2023-04-25T10:13:35;100313.16;;;10.61;46.31
29825;BME280;16713;52.916;12.834;2023-04-25T10:16:04;100311.66;;;10.63;45.66
29825;BME280;16713;52.916;12.834;2023-04-25T10:18:32;100318.50;;;10.73;46.60
29825;BME280;16713;52.916;12.834;2023-04-25T10:21:01;100341.28;;;10.99;46.75
29825;BME280;16713;52.916;12.834;2023-04-25T10:23:30;100337.41;;;11.00;45.88
29825;BME280;16713;52.916;12.834;2023-04-25T10:25:58;100325.59;;;10.35;45.62
29825;BME280;16713;52.916;12.834;2023-04-25T10:28:25;100332.53;;;10.48;44.34
29825;BME280;16713;52.916;12.834;2023-04-25T10:30:58;100348.47;;;10.85;44.75
29825;BME280;16713;52.916;12.834;2023-04-25T10:33:39;100333.41;;;10.75;44.94
29825;BME280;16713;52.916;12.834;2023-04-25T10:36:11;100356.25;;;11.02;44.56
29825;BME280;16713;52.916;12.834;2023-04-25T10:38:39;100326.13;;;10.41;44.94
29825;BME280;16713;52.916;12.834;2023-04-25T10:41:07;100341.09;;;10.66;44.82
29825;BME280;16713;52.916;12.834;2023-04-25T10:43:45;100353.94;;;10.62;45.31
29825;BME280;16713;52.916;12.834;2023-04-25T10:46:16;100380.41;;;10.74;45.06
29825;BME280;16713;52.916;12.834;2023-04-25T10:51:22;100386.41;;;10.79;44.47
29825;BME280;16713;52.916;12.834;2023-04-25T10:54:07;100392.69;;;11.02;44.75
29825;BME280;16713;52.916;12.834;2023-04-25T10:56:38;100398.25;;;11.06;45.33
29825;BME280;16713;52.916;12.834;2023-04-25T10:59:15;100401.81;;;11.29;45.04
29825;BME280;16713;52.916;12.834;2023-04-25T11:01:43;100391.50;;;11.22;44.59
29825;BME280;16713;52.916;12.834;2023-04-25T11:04:30;100401.22;;;11.42;44.57
29825;BME280;16713;52.916;12.834;2023-04-25T11:09:34;100382.34;;;11.15;44.84
29825;BME280;16713;52.916;12.834;2023-04-25T11:12:00;100397.34;;;11.21;44.48
29825;BME280;16713;52.916;12.834;2023-04-25T11:14:27;100408.50;;;11.31;44.77
29825;BME280;16713;52.916;12.834;2023-04-25T11:16:58;100402.63;;;10.88;45.42
29825;BME280;16713;52.916;12.834;2023-04-25T11:19:26;100416.50;;;11.17;45.72
29825;BME280;16713;52.916;12.834;2023-04-25T11:22:00;100423.47;;;11.11;45.36
29825;BME280;16713;52.916;12.834;2023-04-25T11:26:54;100435.00;;;11.20;45.52
29825;BME280;16713;52.916;12.834;2023-04-25T11:29:28;100413.59;;;10.88;45.43
29825;BME280;16713;52.916;12.834;2023-04-25T11:31:55;100425.78;;;11.09;45.90
29825;BME280;16713;52.916;12.834;2023-04-25T11:34:25;100430.28;;;11.21;46.83
29825;BME280;16713;52.916;12.834;2023-04-25T11:36:52;100432.16;;;11.17;47.71
29825;BME280;16713;52.916;12.834;2023-04-25T11:39:20;100418.75;;;10.89;47.63
29825;BME280;16713;52.916;12.834;2023-04-25T11:41:47;100427.34;;;10.69;47.37
29825;BME280;16713;52.916;12.834;2023-04-25T11:44:17;100434.53;;;10.96;47.56
29825;BME280;16713;52.916;12.834;2023-04-25T11:46:44;100436.72;;;10.68;48.08
29825;BME280;16713;52.916;12.834;2023-04-25T11:49:12;100434.56;;;10.77;47.56
29825;BME280;16713;52.916;12.834;2023-04-25T11:51:42;100431.44;;;10.40;48.11
29825;BME280;16713;52.916;12.834;2023-04-25T11:54:10;100437.53;;;10.68;48.87
29825;BME280;16713;52.916;12.834;2023-04-25T11:56:36;100419.97;;;10.34;49.99
29825;BME280;16713;52.916;12.834;2023-04-25T11:59:05;100424.31;;;10.54;48.45
29825;BME280;16713;52.916;12.834;2023-04-25T12:01:38;100420.72;;;10.50;48.95
29825;BME280;16713;52.916;12.834;2023-04-25T12:06:44;100424.13;;;10.63;49.48
29825;BME280;16713;52.916;12.834;2023-04-25T12:09:15;100418.34;;;10.14;48.64
29825;BME280;16713;52.916;12.834;2023-04-25T12:11:48;100426.66;;;10.37;48.91
29825;BME280;16713;52.916;12.834;2023-04-25T12:14:29;100432.97;;;10.37;49.94
29825;BME280;16713;52.916;12.834;2023-04-25T12:17:02;100445.53;;;10.77;49.22
29825;BME280;16713;52.916;12.834;2023-04-25T12:19:34;100443.16;;;10.75;50.38
29825;BME280;16713;52.916;12.834;2023-04-25T12:22:02;100440.75;;;10.93;49.10
29825;BME280;16713;52.916;12.834;2023-04-25T12:24:34;100444.69;;;10.73;49.15
29825;BME280;16713;52.916;12.834;2023-04-25T12:27:05;100444.31;;;10.74;49.02
29825;BME280;16713;52.916;12.834;2023-04-25T12:29:34;100439.75;;;10.63;49.25
29825;BME280;16713;52.916;12.834;2023-04-25T12:32:15;100441.22;;;10.57;49.43
29825;BME280;16713;52.916;12.834;2023-04-25T12:34:42;100445.41;;;10.70;49.69
29825;BME280;16713;52.916;12.834;2023-04-25T12:37:09;100452.53;;;10.74;50.09
29825;BME280;16713;52.916;12.834;2023-04-25T12:39:35;100442.06;;;10.61;49.12
29825;BME280;16713;52.916;12.834;2023-04-25T12:42:02;100447.25;;;10.66;48.71
29825;BME280;16713;52.916;12.834;2023-04-25T12:44:30;100446.81;;;10.44;49.46
29825;BME280;16713;52.916;12.834;2023-04-25T12:46:57;100449.56;;;10.44;49.95
29825;BME280;16713;52.916;12.834;2023-04-25T12:49:23;100449.41;;;10.37;50.82
29825;BME280;16713;52.916;12.834;2023-04-25T12:51:50;100453.56;;;10.47;51.43
29825;BME280;16713;52.916;12.834;2023-04-25T12:54:17;100457.19;;;10.35;50.49
29825;BME280;16713;52.916;12.834;2023-04-25T12:56:44;100452.75;;;10.46;50.75
29825;BME280;16713;52.916;12.834;2023-04-25T12:59:10;100452.47;;;10.51;51.76
29825;BME280;16713;52.916;12.834;2023-04-25T13:01:37;100450.00;;;10.46;52.13
29825;BME280;16713;52.916;12.834;2023-04-25T13:04:04;100450.13;;;10.34;52.02
29825;BME280;16713;52.916;12.834;2023-04-25T13:06:30;100438.78;;;10.17;52.05
29825;BME280;16713;52.916;12.834;2023-04-25T13:08:57;100453.13;;;10.45;53.12